Time;durP1;ratioP1;P1;durP2;ratioP2;P2;SDS_P1;SDS_P2;PMS_P1;PMS_P2;Temp;Humidity;BMP_temperature;BMP_pressure;BME280_temperature;BME280_humidity;BME280_pressure;Samples;Min_cycle;Max_cycle;Signal;HPM_P1;HPM_P2
2022/05/24 00:00:46;;;;;;;6.97;4.53;;;16.30;26.40;;;;;;4987507;28;35528;-76
2022/05/24 00:03:12;;;;;;;7.47;4.00;;;16.30;26.60;;;;;;4987622;28;34385;-77
2022/05/24 00:05:39;;;;;;;5.00;4.15;;;16.30;26.60;;;;;;5004473;28;34277;-77
2022/05/24 00:08:07;;;;;;;6.03;4.80;;;16.30;26.90;;;;;;4988320;28;34086;-77
2022/05/24 00:10:34;;;;;;;5.85;4.78;;;16.30;26.90;;;;;;4988477;28;35739;-77
2022/05/24 00:13:00;;;;;;;5.85;4.68;;;16.30;26.90;;;;;;4972398;28;34193;-77
2022/05/24 00:15:30;;;;;;;8.80;4.50;;;16.30;26.90;;;;;;5005067;28;34202;-79
2022/05/24 00:18:02;;;;;;;4.90;4.40;;;16.40;27.00;;;;;;5005972;28;34067;-78
2022/05/24 00:20:35;;;;;;;6.80;4.43;;;16.30;27.20;;;;;;5005138;28;36299;-78
2022/05/24 00:23:02;;;;;;;6.97;4.32;;;16.30;27.20;;;;;;5005829;28;34384;-78
2022/05/24 00:25:30;;;;;;;6.70;5.03;;;16.30;27.10;;;;;;4989427;28;34134;-78
2022/05/24 00:27:56;;;;;;;5.97;4.57;;;16.30;27.10;;;;;;4971087;28;34072;-77
2022/05/24 00:30:22;;;;;;;6.05;5.13;;;16.30;27.30;;;;;;4972015;28;36571;-77
2022/05/24 00:32:49;;;;;;;6.55;4.60;;;16.20;27.30;;;;;;4983611;28;34079;-77
2022/05/24 00:35:16;;;;;;;7.47;4.95;;;16.30;27.50;;;;;;5007606;28;34162;-78
2022/05/24 00:37:43;;;;;;;6.38;5.18;;;16.20;27.60;;;;;;4945755;28;34519;-77
2022/05/24 00:40:18;;;;;;;6.93;5.18;;;16.20;27.80;;;;;;4973845;28;35821;-78
2022/05/24 00:42:46;;;;;;;6.47;5.25;;;16.20;27.90;;;;;;4962362;28;34181;-78
2022/05/24 00:45:21;;;;;;;8.23;5.15;;;16.20;27.80;;;;;;4987881;28;34068;-78
2022/05/24 00:47:54;;;;;;;5.13;4.30;;;16.20;28.30;;;;;;4977814;28;34142;-78
2022/05/24 00:50:35;;;;;;;6.85;4.90;;;16.20;28.10;;;;;;5017857;28;34225;-78
2022/05/24 00:53:18;;;;;;;5.03;4.53;;;16.20;29.00;;;;;;5010565;28;34320;-77
2022/05/24 00:55:51;;;;;;;6.28;5.22;;;16.20;28.20;;;;;;5008243;28;34598;-78
2022/05/24 00:58:36;;;;;;;12.05;6.20;;;16.20;28.50;;;;;;4976985;28;34378;-77
2022/05/24 01:01:12;;;;;;;8.18;6.10;;;16.20;28.70;;;;;;4987609;28;36083;-79
2022/05/24 01:03:38;;;;;;;8.55;6.40;;;16.10;28.70;;;;;;4987338;28;34083;-78
2022/05/24 01:06:04;;;;;;;8.40;6.13;;;16.10;28.70;;;;;;4975106;28;34161;-77
2022/05/24 01:08:32;;;;;;;7.90;5.75;;;16.00;28.70;;;;;;4990713;28;34417;-78
2022/05/24 01:11:00;;;;;;;11.48;6.10;;;16.00;28.80;;;;;;5007301;28;35654;-78
2022/05/24 01:13:29;;;;;;;7.20;5.70;;;16.10;28.90;;;;;;5001213;28;34068;-78
2022/05/24 01:15:55;;;;;;;7.82;6.00;;;16.10;29.10;;;;;;4999924;28;34159;-77
2022/05/24 01:18:24;;;;;;;10.40;6.35;;;16.10;28.90;;;;;;4995143;28;34282;-77
2022/05/24 01:20:56;;;;;;;9.32;6.15;;;16.00;29.00;;;;;;5011077;28;35541;-78
2022/05/24 01:23:43;;;;;;;7.40;5.93;;;16.00;29.30;;;;;;5008763;28;34227;-77
2022/05/24 01:26:32;;;;;;;6.10;5.40;;;16.10;29.70;;;;;;4990341;28;34230;-78
2022/05/24 01:29:01;;;;;;;7.13;5.72;;;16.10;30.00;;;;;;4991094;28;34083;-77
2022/05/24 01:36:51;;;;;;;6.90;5.60;;;16.10;29.20;;;;;;5028319;28;34193;-78
2022/05/24 01:39:17;;;;;;;6.18;5.50;;;16.10;29.20;;;;;;5011235;28;34527;-78
2022/05/24 01:41:48;;;;;;;7.85;5.68;;;16.10;29.20;;;;;;5006604;28;36581;-78
2022/05/24 01:44:19;;;;;;;8.32;5.88;;;16.10;29.30;;;;;;4990500;28;34301;-77
2022/05/24 01:46:46;;;;;;;7.18;6.18;;;16.10;29.30;;;;;;4998775;28;34439;-80
2022/05/24 01:49:18;;;;;;;8.63;6.50;;;16.10;29.30;;;;;;5009071;28;34006;-78
2022/05/24 01:51:53;;;;;;;9.32;6.65;;;16.10;29.40;;;;;;4980529;28;35664;-78
2022/05/24 01:54:20;;;;;;;7.35;5.38;;;16.10;29.50;;;;;;4990492;28;34353;-78
2022/05/24 01:56:56;;;;;;;8.50;5.90;;;16.10;29.30;;;;;;4988097;28;34255;-77
2022/05/24 01:59:24;;;;;;;8.05;6.13;;;16.10;29.60;;;;;;5007171;28;34103;-76
2022/05/24 02:01:53;;;;;;;7.75;5.93;;;16.10;29.40;;;;;;5007553;28;36859;-77
2022/05/24 02:04:21;;;;;;;10.35;7.30;;;16.10;29.40;;;;;;5006859;28;34342;-77
2022/05/24 02:07:05;;;;;;;9.82;6.85;;;16.10;29.40;;;;;;4975663;28;34197;-78
2022/05/24 02:09:33;;;;;;;9.07;6.53;;;16.10;30.50;;;;;;4992615;28;34469;-78
2022/05/24 02:12:07;;;;;;;9.60;6.20;;;16.10;29.30;;;;;;4992140;28;35967;-77
2022/05/24 02:14:39;;;;;;;8.52;6.43;;;16.10;29.40;;;;;;5010755;28;34269;-77
2022/05/24 02:17:13;;;;;;;9.27;6.65;;;16.10;29.40;;;;;;4992596;28;34339;-77
2022/05/24 02:19:47;;;;;;;11.63;6.95;;;16.10;29.50;;;;;;4992349;28;34117;-78
2022/05/24 02:22:18;;;;;;;7.85;5.90;;;16.10;29.30;;;;;;4976594;28;36361;-77
2022/05/24 02:24:45;;;;;;;9.23;6.47;;;16.10;29.50;;;;;;4975895;28;34236;-76
2022/05/24 02:27:11;;;;;;;10.75;6.80;;;16.00;29.30;;;;;;5008003;28;34110;-77
2022/05/24 02:29:37;;;;;;;10.05;6.55;;;16.00;29.30;;;;;;5009641;28;34052;-76
2022/05/24 02:32:03;;;;;;;11.80;7.47;;;16.00;29.30;;;;;;4981696;28;35783;-78
2022/05/24 02:34:29;;;;;;;8.95;6.53;;;16.00;29.30;;;;;;4974580;28;34242;-77
2022/05/24 02:36:55;;;;;;;9.07;6.47;;;16.00;29.30;;;;;;4991746;28;34340;-78
2022/05/24 02:39:21;;;;;;;8.52;6.88;;;16.00;29.30;;;;;;4990625;28;34336;-77
2022/05/24 02:41:47;;;;;;;9.98;6.78;;;15.90;29.20;;;;;;4989397;28;35885;-77
2022/05/24 02:44:15;;;;;;;7.45;6.45;;;15.90;29.30;;;;;;4989315;28;34189;-76
2022/05/24 02:46:45;;;;;;;10.50;6.90;;;15.90;29.30;;;;;;4988337;28;34112;-75
2022/05/24 02:49:11;;;;;;;11.70;6.82;;;15.90;29.50;;;;;;4970373;28;34220;-76
2022/05/24 02:51:38;;;;;;;8.35;6.20;;;15.90;29.30;;;;;;5005674;28;35197;-76
2022/05/24 02:54:06;;;;;;;9.88;6.72;;;15.90;29.40;;;;;;4988584;28;34207;-75
2022/05/24 02:56:33;;;;;;;10.23;7.13;;;15.80;29.40;;;;;;4954433;28;34008;-76
2022/05/24 02:58:59;;;;;;;8.93;6.82;;;15.80;29.40;;;;;;4985268;28;34050;-76
2022/05/24 03:01:27;;;;;;;10.00;6.60;;;15.80;29.40;;;;;;5003813;28;35887;-77
2022/05/24 03:03:55;;;;;;;9.98;6.55;;;15.70;29.60;;;;;;4985669;28;34279;-74
2022/05/24 03:06:22;;;;;;;6.90;5.03;;;15.70;29.60;;;;;;4984410;28;34120;-76
2022/05/24 03:14:15;;;;;;;6.50;4.65;;;15.50;29.50;;;;;;5005176;28;34189;-77
2022/05/24 03:16:46;;;;;;;7.57;4.60;;;15.40;29.40;;;;;;5004363;28;34167;-77
2022/05/24 03:19:12;;;;;;;6.75;4.72;;;15.30;30.10;;;;;;5004793;28;34262;-77
2022/05/24 03:21:38;;;;;;;6.55;3.80;;;15.20;29.60;;;;;;4990173;28;35867;-77
2022/05/24 03:24:05;;;;;;;4.75;3.67;;;15.10;29.70;;;;;;5006847;28;34022;-75
2022/05/24 03:26:30;;;;;;;5.80;4.15;;;15.10;29.60;;;;;;4984308;28;34120;-76
2022/05/24 03:28:56;;;;;;;5.40;4.20;;;15.10;29.60;;;;;;5001148;28;34115;-77
2022/05/24 03:31:22;;;;;;;5.53;3.70;;;15.00;29.60;;;;;;4967994;28;35463;-78
2022/05/24 03:33:49;;;;;;;5.82;3.70;;;15.00;29.60;;;;;;4984180;28;34033;-75
2022/05/24 03:36:14;;;;;;;5.53;3.45;;;15.00;29.50;;;;;;4968066;28;34053;-76
2022/05/24 03:38:40;;;;;;;7.57;3.85;;;14.90;29.70;;;;;;5001881;28;34233;-74
2022/05/24 03:41:06;;;;;;;4.22;3.60;;;14.90;29.60;;;;;;4987253;28;35564;-73
2022/05/24 03:43:32;;;;;;;5.65;4.10;;;14.90;29.70;;;;;;4987274;28;34326;-74
2022/05/24 03:46:00;;;;;;;4.10;3.42;;;14.90;29.70;;;;;;5003519;28;34205;-74
2022/05/24 03:48:26;;;;;;;7.10;4.00;;;14.90;29.80;;;;;;4987338;28;34334;-74
2022/05/24 03:50:52;;;;;;;7.65;4.32;;;14.90;29.70;;;;;;4996024;28;35821;-75
2022/05/24 03:53:18;;;;;;;6.85;3.42;;;14.90;29.70;;;;;;4978059;28;34070;-74
2022/05/24 03:55:44;;;;;;;4.15;3.00;;;14.90;29.70;;;;;;4984728;28;34550;-74
2022/05/24 03:58:10;;;;;;;4.45;3.65;;;14.80;30.20;;;;;;4951175;28;34426;-74
2022/05/24 04:00:39;;;;;;;4.97;3.10;;;14.80;29.60;;;;;;4966926;28;34443;-74
2022/05/24 04:03:06;;;;;;;9.35;3.22;;;14.80;29.90;;;;;;4982605;28;34126;-74
2022/05/24 04:05:32;;;;;;;4.20;2.83;;;14.80;29.80;;;;;;4951364;28;34176;-76
2022/05/24 04:07:59;;;;;;;4.03;2.78;;;14.70;30.00;;;;;;4967644;28;34089;-77
2022/05/24 04:10:26;;;;;;;3.15;2.30;;;14.70;29.70;;;;;;4985571;28;34188;-74
2022/05/24 04:12:52;;;;;;;4.00;2.47;;;14.70;29.70;;;;;;4986844;28;34296;-75
2022/05/24 04:15:19;;;;;;;3.05;2.22;;;14.60;29.70;;;;;;4954755;28;34106;-74
2022/05/24 04:17:46;;;;;;;4.00;2.30;;;14.60;29.80;;;;;;4988653;28;34347;-74
2022/05/24 04:20:13;;;;;;;3.60;2.55;;;14.60;29.80;;;;;;4970468;28;36329;-74
2022/05/24 04:22:39;;;;;;;4.18;2.63;;;14.60;29.90;;;;;;5003935;28;34149;-74
2022/05/24 04:25:07;;;;;;;2.72;2.28;;;14.50;29.90;;;;;;4986853;28;34365;-74
2022/05/24 04:27:32;;;;;;;3.53;2.42;;;14.50;29.90;;;;;;5004872;28;34086;-75
2022/05/24 04:29:58;;;;;;;3.20;2.15;;;14.50;29.90;;;;;;4970459;28;36060;-74
2022/05/24 04:32:24;;;;;;;4.20;2.70;;;14.40;29.80;;;;;;4986504;28;34075;-74
2022/05/24 04:34:50;;;;;;;2.75;2.17;;;14.40;29.90;;;;;;5003676;28;34269;-74
2022/05/24 04:37:17;;;;;;;3.13;2.30;;;14.50;30.10;;;;;;5003846;28;34109;-74
2022/05/24 04:39:43;;;;;;;3.15;1.88;;;14.50;30.10;;;;;;4986440;28;36255;-75
2022/05/24 04:42:18;;;;;;;2.78;2.00;;;14.40;30.20;;;;;;4986927;28;34161;-76
2022/05/24 04:44:46;;;;;;;2.90;2.10;;;14.40;30.50;;;;;;4987027;28;34143;-75
2022/05/24 04:47:13;;;;;;;3.47;2.17;;;14.40;30.50;;;;;;4987978;28;34138;-76
2022/05/24 04:49:43;;;;;;;2.42;2.13;;;14.40;30.50;;;;;;4976382;28;35632;-76
2022/05/24 04:52:10;;;;;;;2.15;1.95;;;14.40;30.60;;;;;;4995575;28;34035;-75
2022/05/24 04:54:39;;;;;;;2.35;1.98;;;14.40;30.60;;;;;;4986867;28;34332;-76
2022/05/24 04:57:06;;;;;;;2.63;1.85;;;14.40;30.70;;;;;;4986796;28;34491;-75
2022/05/24 04:59:32;;;;;;;2.50;2.00;;;14.40;30.60;;;;;;4985973;28;35614;-75
2022/05/24 05:01:58;;;;;;;1.77;1.67;;;14.40;30.60;;;;;;5001493;28;34103;-74
2022/05/24 05:04:24;;;;;;;1.60;1.50;;;14.30;30.60;;;;;;5005919;28;34105;-74
2022/05/24 05:06:51;;;;;;;2.40;1.65;;;14.40;30.50;;;;;;5006015;28;34039;-76
2022/05/24 05:09:18;;;;;;;1.92;1.75;;;14.40;30.50;;;;;;5006190;28;35598;-75
2022/05/24 05:11:44;;;;;;;2.38;1.90;;;14.40;30.60;;;;;;5006079;28;34130;-75
2022/05/24 05:14:10;;;;;;;2.63;1.80;;;14.40;30.60;;;;;;5005703;28;34159;-75
2022/05/24 05:16:37;;;;;;;3.00;1.70;;;14.40;30.60;;;;;;4990185;28;34198;-77
2022/05/24 05:19:05;;;;;;;1.65;1.55;;;14.40;30.70;;;;;;5006053;28;36259;-75
2022/05/24 05:21:33;;;;;;;4.75;1.83;;;14.30;30.60;;;;;;5006502;28;34266;-75
2022/05/24 05:24:00;;;;;;;3.80;2.10;;;14.30;30.60;;;;;;4969922;28;34179;-74
2022/05/24 05:26:26;;;;;;;2.05;1.70;;;14.40;30.60;;;;;;4984317;28;34318;-75
2022/05/24 05:28:52;;;;;;;3.15;1.83;;;14.40;30.60;;;;;;5006228;28;34185;-75
2022/05/24 05:31:22;;;;;;;3.20;2.20;;;14.50;30.80;;;;;;5000592;28;34170;-75
2022/05/24 05:33:50;;;;;;;3.60;1.77;;;14.50;30.90;;;;;;5001641;28;34277;-75
2022/05/24 05:36:17;;;;;;;2.08;1.63;;;14.60;30.80;;;;;;5003686;28;34154;-76
2022/05/24 05:38:47;;;;;;;3.60;1.63;;;14.60;30.60;;;;;;5005250;28;35297;-76
2022/05/24 05:41:19;;;;;;;2.03;1.23;;;14.70;30.50;;;;;;5005942;28;34206;-78
2022/05/24 05:43:45;;;;;;;1.40;1.30;;;14.70;30.60;;;;;;5005332;28;34427;-76
2022/05/24 05:46:12;;;;;;;2.95;1.40;;;14.70;30.30;;;;;;5006895;28;34134;-77
2022/05/24 05:48:39;;;;;;;1.92;1.20;;;14.80;30.20;;;;;;5006739;28;35324;-75
2022/05/24 05:51:07;;;;;;;1.38;1.27;;;14.80;30.10;;;;;;4973628;28;34235;-77
2022/05/24 05:53:33;;;;;;;1.88;1.33;;;14.90;30.00;;;;;;4967459;28;34363;-78
2022/05/24 05:55:59;;;;;;;1.23;1.00;;;14.90;30.00;;;;;;4973880;28;34000;-77
2022/05/24 05:58:25;;;;;;;1.58;0.77;;;15.00;29.90;;;;;;4966356;28;36559;-78
2022/05/24 06:00:52;;;;;;;2.20;1.10;;;15.10;30.00;;;;;;4940633;28;34349;-79
2022/05/24 06:03:18;;;;;;;1.67;1.10;;;15.10;29.80;;;;;;4966305;28;34274;-77
2022/05/24 06:05:48;;;;;;;1.35;1.17;;;15.10;29.60;;;;;;4971596;28;34211;-78
2022/05/24 06:08:14;;;;;;;0.82;0.80;;;15.10;29.80;;;;;;4968141;28;35873;-77
2022/05/24 06:10:41;;;;;;;2.35;1.00;;;15.00;29.50;;;;;;5009749;28;34139;-78
2022/05/24 06:13:09;;;;;;;2.58;1.05;;;15.00;29.60;;;;;;4991353;28;33795;-79
2022/05/24 06:15:35;;;;;;;1.00;0.98;;;15.00;29.70;;;;;;4988827;28;34337;-77
2022/05/24 06:18:02;;;;;;;2.53;1.13;;;15.00;29.70;;;;;;5001439;28;34473;-79
2022/05/24 06:20:30;;;;;;;2.35;1.10;;;15.00;29.70;;;;;;4999362;28;34127;-78
2022/05/24 06:22:57;;;;;;;0.90;0.85;;;15.10;29.50;;;;;;4991147;28;34219;-78
2022/05/24 06:25:26;;;;;;;1.17;0.82;;;15.10;29.30;;;;;;4986825;28;34078;-78
2022/05/24 06:27:53;;;;;;;0.95;0.73;;;15.10;29.00;;;;;;4958335;28;35950;-80
2022/05/24 06:30:21;;;;;;;0.73;0.73;;;15.20;28.80;;;;;;5001473;28;34067;-77
2022/05/24 06:32:47;;;;;;;1.80;0.70;;;15.50;28.60;;;;;;4974197;28;34300;-77
2022/05/24 06:35:14;;;;;;;3.17;0.70;;;15.60;27.90;;;;;;5000080;28;34068;-78
2022/05/24 06:37:41;;;;;;;2.88;0.68;;;15.90;27.00;;;;;;4970259;28;36683;-79
2022/05/24 06:40:09;;;;;;;0.90;0.75;;;16.00;27.00;;;;;;4970950;28;34252;-77
2022/05/24 06:42:35;;;;;;;0.65;0.60;;;16.20;25.70;;;;;;4970741;28;34296;-76
2022/05/24 06:45:01;;;;;;;2.78;0.80;;;16.60;25.00;;;;;;4987675;28;34039;-76
2022/05/24 06:47:28;;;;;;;4.00;0.70;;;17.10;24.00;;;;;;4986655;28;35979;-78
2022/05/24 06:49:55;;;;;;;1.88;0.80;;;17.80;22.30;;;;;;4981550;28;34423;-78
2022/05/24 06:52:22;;;;;;;1.23;0.68;;;18.50;21.00;;;;;;5025129;28;34379;-78
2022/05/24 06:54:48;;;;;;;0.85;0.60;;;19.00;19.60;;;;;;5004688;28;34681;-78
2022/05/24 06:57:14;;;;;;;2.60;0.70;;;19.60;18.80;;;;;;5003562;28;35451;-78
2022/05/24 07:02:29;;;;;;;1.20;0.60;;;19.70;18.10;;;;;;5025660;28;34026;-77
2022/05/24 07:05:00;;;;;;;1.73;0.93;;;19.40;18.30;;;;;;5011341;28;34191;-78
2022/05/24 07:07:27;;;;;;;1.67;0.85;;;19.20;18.30;;;;;;4992689;28;35650;-77
2022/05/24 07:09:53;;;;;;;1.73;0.80;;;19.10;19.10;;;;;;4992488;28;34404;-76
2022/05/24 07:12:21;;;;;;;0.82;0.77;;;18.80;19.20;;;;;;4995426;28;34337;-76
2022/05/24 07:14:47;;;;;;;1.88;0.80;;;18.50;19.60;;;;;;4992914;28;34614;-78
2022/05/24 07:17:15;;;;;;;2.75;1.00;;;18.20;20.20;;;;;;4996578;28;35349;-80
2022/05/24 07:19:41;;;;;;;1.50;1.00;;;17.90;20.90;;;;;;5008602;28;34137;-77
2022/05/24 07:22:07;;;;;;;1.75;1.13;;;17.50;21.10;;;;;;5010254;28;34356;-79
2022/05/24 07:24:33;;;;;;;1.85;1.00;;;17.30;21.60;;;;;;4995127;28;34500;-76
2022/05/24 07:27:00;;;;;;;1.73;0.90;;;17.00;21.80;;;;;;5026930;28;34245;-78
2022/05/24 07:29:26;;;;;;;2.35;1.00;;;16.60;20.70;;;;;;5011969;28;34317;-79
2022/05/24 07:31:52;;;;;;;1.63;1.05;;;16.30;22.40;;;;;;5008993;28;34191;-78
2022/05/24 07:34:18;;;;;;;2.63;1.35;;;16.20;22.90;;;;;;4975019;28;33886;-77
2022/05/24 07:36:45;;;;;;;3.15;1.38;;;16.00;23.20;;;;;;4997129;28;35956;-78
2022/05/24 07:39:11;;;;;;;2.05;1.20;;;15.90;23.90;;;;;;4998991;28;33895;-78
2022/05/24 07:46:59;;;;;;;3.05;1.00;;;15.80;23.90;;;;;;5023764;28;34125;-77
2022/05/24 07:49:25;;;;;;;2.10;1.15;;;15.80;24.50;;;;;;5012383;28;34455;-78
2022/05/24 07:51:51;;;;;;;1.10;1.00;;;15.90;24.10;;;;;;5028961;28;34137;-77
2022/05/24 07:54:17;;;;;;;3.83;1.30;;;15.80;24.10;;;;;;5004433;28;34071;-77
2022/05/24 07:56:44;;;;;;;2.85;1.20;;;15.90;24.30;;;;;;5002973;28;36230;-76
2022/05/24 08:02:32;;;;;;;3.08;1.55;;;15.70;24.40;;;;;;5006508;28;34193;-75
2022/05/24 08:04:58;;;;;;;1.80;1.40;;;15.60;24.20;;;;;;5006437;28;34296;-76
2022/05/24 08:07:23;;;;;;;1.88;1.38;;;15.60;24.50;;;;;;5000750;28;36096;-75
2022/05/24 08:09:49;;;;;;;2.25;1.20;;;15.60;24.70;;;;;;4987311;28;34187;-76
2022/05/24 08:12:15;;;;;;;1.65;1.08;;;15.60;24.80;;;;;;4979441;28;34280;-76
2022/05/24 08:14:41;;;;;;;1.42;1.00;;;15.60;25.00;;;;;;4955474;28;34497;-79
2022/05/24 08:17:07;;;;;;;1.40;1.10;;;15.60;25.00;;;;;;4987681;28;36017;-79
2022/05/24 08:19:33;;;;;;;1.27;1.10;;;15.60;24.80;;;;;;4993637;28;33945;-79
2022/05/24 08:21:59;;;;;;;1.65;1.13;;;15.60;24.80;;;;;;4973494;28;34324;-77
2022/05/24 08:24:25;;;;;;;1.08;1.00;;;15.60;24.70;;;;;;5007571;28;34265;-77
2022/05/24 08:26:51;;;;;;;1.00;0.90;;;15.60;24.60;;;;;;4991671;28;35778;-79
2022/05/24 08:29:17;;;;;;;3.15;1.15;;;15.60;24.70;;;;;;5010420;28;34086;-78
2022/05/24 08:31:43;;;;;;;1.30;1.20;;;15.60;24.70;;;;;;4993347;28;33808;-77
2022/05/24 08:34:09;;;;;;;2.13;1.08;;;15.60;24.80;;;;;;4962773;28;34405;-78
2022/05/24 08:36:35;;;;;;;5.18;1.05;;;15.60;24.90;;;;;;4988314;28;35480;-78
2022/05/24 08:39:19;;;;;;;2.40;1.30;;;15.60;24.80;;;;;;4991210;28;34236;-79
2022/05/24 08:42:14;;;;;;;1.73;1.15;;;15.60;24.80;;;;;;5004263;28;34003;-79
2022/05/24 08:50:17;;;;;;;1.60;1.10;;;16.00;24.20;;;;;;4991865;28;34027;-77
2022/05/24 08:52:49;;;;;;;1.98;1.00;;;16.30;23.90;;;;;;4997134;28;34035;-78
2022/05/24 08:55:16;;;;;;;2.33;1.20;;;16.40;23.50;;;;;;4991090;28;34546;-81
2022/05/24 08:57:50;;;;;;;2.67;1.20;;;16.50;23.40;;;;;;4991111;28;35675;-76
2022/05/24 09:00:21;;;;;;;1.45;1.15;;;17.20;22.60;;;;;;4999392;28;34274;-79
2022/05/24 09:02:48;;;;;;;1.27;0.90;;;17.60;22.30;;;;;;4994995;28;34282;-76
2022/05/24 09:05:33;;;;;;;1.45;1.00;;;18.00;21.40;;;;;;5010796;28;34621;-78
2022/05/24 09:08:19;;;;;;;1.00;0.90;;;18.00;21.40;;;;;;4997643;28;36046;-77
2022/05/24 09:10:50;;;;;;;1.33;1.08;;;18.10;19.80;;;;;;4990923;28;33659;-79
2022/05/24 09:13:41;;;;;;;1.17;1.08;;;18.00;20.70;;;;;;4995012;28;35869;-79
2022/05/24 09:16:12;;;;;;;1.70;0.80;;;18.20;16.80;;;;;;5005592;28;34172;-79
2022/05/24 09:18:57;;;;;;;0.93;0.82;;;18.20;20.70;;;;;;4991463;28;35719;-80
2022/05/24 09:21:28;;;;;;;0.98;0.70;;;17.90;18.00;;;;;;4992606;28;34351;-77
2022/05/24 09:24:25;;;;;;;0.70;0.70;;;17.50;20.20;;;;;;4976023;28;34178;-79
2022/05/24 09:27:12;;;;;;;1.48;0.88;;;17.20;17.90;;;;;;5009353;28;34076;-80
2022/05/24 09:30:02;;;;;;;1.35;0.90;;;17.00;18.50;;;;;;5007061;28;35766;-77
2022/05/24 09:32:42;;;;;;;0.80;0.80;;;16.80;19.90;;;;;;4990810;28;34041;-78
2022/05/24 09:35:25;;;;;;;1.15;0.90;;;16.80;20.60;;;;;;5008002;28;34289;-77
2022/05/24 09:38:12;;;;;;;0.90;0.90;;;17.00;21.00;;;;;;4992850;28;34534;-77
2022/05/24 09:40:55;;;;;;;1.13;0.70;;;17.50;21.50;;;;;;5006293;28;37053;-78
2022/05/24 09:43:26;;;;;;;2.15;1.08;;;17.90;17.10;;;;;;4995499;28;34233;-77
2022/05/24 09:45:58;;;;;;;1.23;1.10;;;18.30;20.00;;;;;;5000774;28;34222;-79
2022/05/24 09:48:28;;;;;;;0.57;0.57;;;18.80;18.60;;;;;;4979707;28;34407;-77
2022/05/24 09:50:57;;;;;;;1.00;0.90;;;19.10;15.90;;;;;;4993478;28;35567;-75
2022/05/24 09:53:26;;;;;;;1.48;0.60;;;19.40;17.60;;;;;;4977271;28;34070;-78
2022/05/24 09:55:59;;;;;;;0.60;0.60;;;19.70;17.40;;;;;;4996166;28;34546;-76
2022/05/24 09:58:39;;;;;;;1.90;0.70;;;19.90;13.70;;;;;;5027038;28;34280;-78
2022/05/24 10:01:13;;;;;;;0.88;0.60;;;20.00;14.50;;;;;;5027102;28;34351;-75
2022/05/24 10:03:43;;;;;;;1.30;0.63;;;20.00;14.40;;;;;;4992848;28;34150;-78
2022/05/24 10:06:20;;;;;;;1.30;0.52;;;20.20;16.20;;;;;;5010192;28;34435;-75
2022/05/24 10:08:51;;;;;;;1.05;0.80;;;20.30;14.80;;;;;;5008693;28;34348;-76
2022/05/24 10:11:38;;;;;;;0.65;0.60;;;20.10;15.50;;;;;;5009450;28;35586;-77
2022/05/24 10:14:24;;;;;;;1.33;0.70;;;20.00;13.30;;;;;;5027876;28;34509;-77
2022/05/24 10:17:09;;;;;;;1.48;0.57;;;19.90;10.80;;;;;;5011956;28;34318;-77
2022/05/24 10:19:55;;;;;;;1.63;0.70;;;19.60;14.90;;;;;;5009096;28;34595;-75
2022/05/24 10:22:43;;;;;;;0.52;0.50;;;19.20;14.50;;;;;;5009304;28;36133;-76
2022/05/24 10:25:26;;;;;;;1.60;0.60;;;19.00;14.00;;;;;;5008845;28;34128;-76
2022/05/24 10:28:15;;;;;;;1.55;0.38;;;18.70;14.70;;;;;;4992755;28;34161;-75
2022/05/24 10:31:03;;;;;;;1.35;0.63;;;18.60;14.80;;;;;;4978453;28;34177;-79
2022/05/24 10:39:48;;;;;;;0.95;0.60;;;19.00;16.40;;;;;;5025723;28;34052;-78
2022/05/24 10:42:43;;;;;;;1.33;0.40;;;19.50;14.30;;;;;;4999572;28;34175;-75
2022/05/24 10:45:17;;;;;;;0.45;0.30;;;20.00;10.40;;;;;;5006162;28;34326;-75
2022/05/24 10:47:53;;;;;;;1.95;0.43;;;20.20;13.00;;;;;;4988764;28;34405;-75
2022/05/24 10:50:38;;;;;;;0.32;0.32;;;20.60;11.60;;;;;;4970031;28;34233;-75
2022/05/24 10:53:15;;;;;;;2.33;0.30;;;20.80;9.60;;;;;;5003288;28;34192;-74
2022/05/24 10:55:46;;;;;;;0.30;0.30;;;20.90;10.20;;;;;;4971828;28;35724;-74
2022/05/24 10:58:16;;;;;;;0.50;0.40;;;21.20;11.80;;;;;;4988301;28;34399;-76
2022/05/24 11:00:48;;;;;;;0.75;0.30;;;21.50;11.70;;;;;;4988381;28;34096;-75
2022/05/24 11:03:30;;;;;;;0.30;0.30;;;21.80;10.40;;;;;;5005439;28;34497;-76
2022/05/24 11:06:04;;;;;;;1.10;0.30;;;21.80;11.60;;;;;;4988254;28;36456;-75
2022/05/24 11:08:49;;;;;;;0.35;0.35;;;21.80;9.70;;;;;;4988367;28;34097;-77
2022/05/24 11:11:32;;;;;;;0.73;0.30;;;22.00;6.60;;;;;;4988277;28;34121;-75
2022/05/24 11:14:33;;;;;;;0.45;0.30;;;22.10;7.40;;;;;;4957403;28;34516;-78
2022/05/24 11:17:01;;;;;;;0.30;0.30;;;22.30;4.60;;;;;;4973993;28;35868;-76
2022/05/24 11:19:35;;;;;;;1.92;0.40;;;22.00;10.30;;;;;;5004714;28;34217;-75
2022/05/24 11:22:26;;;;;;;0.30;0.20;;;21.60;9.40;;;;;;4972999;28;34197;-78
2022/05/24 11:25:12;;;;;;;0.65;0.30;;;21.10;5.60;;;;;;4968913;28;34102;-75
2022/05/24 11:27:44;;;;;;;0.85;0.60;;;20.80;6.70;;;;;;4969785;28;34203;-75
2022/05/24 11:30:19;;;;;;;1.05;0.30;;;20.70;10.10;;;;;;4986012;28;34004;-74
2022/05/24 11:33:05;;;;;;;0.68;0.28;;;20.40;7.80;;;;;;4981171;28;34546;-76
2022/05/24 11:35:36;;;;;;;0.28;0.20;;;20.40;7.70;;;;;;5005721;28;34264;-77
2022/05/24 11:38:33;;;;;;;0.50;0.40;;;20.30;9.40;;;;;;4967786;28;35497;-77
2022/05/24 11:41:19;;;;;;;0.63;0.30;;;20.50;5.20;;;;;;4968423;28;34351;-77
2022/05/24 11:44:03;;;;;;;1.35;0.40;;;20.70;7.30;;;;;;4982672;28;34088;-75
2022/05/24 11:46:44;;;;;;;2.63;0.30;;;20.80;6.30;;;;;;4957554;28;34349;-76
2022/05/24 11:49:32;;;;;;;1.20;0.32;;;20.90;6.30;;;;;;4971450;28;35607;-76
2022/05/24 11:52:00;;;;;;;0.68;0.50;;;21.20;8.60;;;;;;5005174;28;34639;-74
2022/05/24 11:54:54;;;;;;;0.73;0.40;;;21.60;8.20;;;;;;4987661;28;34378;-76
2022/05/24 11:57:25;;;;;;;0.75;0.40;;;21.80;2.00;;;;;;5002768;28;34106;-75
2022/05/24 11:59:52;;;;;;;2.33;0.30;;;22.00;3.30;;;;;;4986927;28;35676;-75
2022/05/24 12:08:39;;;;;;;0.82;0.35;;;21.70;1.10;;;;;;5004323;28;34062;-76
2022/05/24 12:11:36;;;;;;;0.73;0.38;;;21.50;1.00;;;;;;5003986;28;35745;-77
2022/05/24 12:14:40;;;;;;;1.95;0.47;;;21.40;3.40;;;;;;5006055;28;34070;-75
2022/05/24 12:17:14;;;;;;;0.90;0.40;;;21.40;1.40;;;;;;5005168;28;34319;-77
2022/05/24 12:19:44;;;;;;;3.33;0.50;;;21.40;4.40;;;;;;4989450;28;34084;-79
2022/05/24 12:22:12;;;;;;;2.22;0.70;;;21.40;7.00;;;;;;4993516;28;35851;-79
2022/05/24 12:24:47;;;;;;;1.20;0.40;;;21.30;6.70;;;;;;4987056;28;34347;-76
2022/05/24 12:27:34;;;;;;;0.22;0.20;;;21.10;4.80;;;;;;4985304;28;34063;-75
2022/05/24 12:30:20;;;;;;;0.50;0.40;;;20.80;1.60;;;;;;4990939;28;34025;-76
2022/05/24 12:32:46;;;;;;;4.53;0.55;;;20.30;4.30;;;;;;4994518;28;34588;-76
2022/05/24 12:35:15;;;;;;;0.63;0.57;;;20.00;8.20;;;;;;5000583;28;34132;-76
2022/05/24 12:37:49;;;;;;;0.52;0.50;;;19.70;8.30;;;;;;4999709;28;34355;-76
2022/05/24 12:40:25;;;;;;;2.08;0.43;;;19.60;7.50;;;;;;5005331;28;34467;-77
2022/05/24 12:42:56;;;;;;;2.35;0.38;;;19.20;4.90;;;;;;5003141;28;35813;-77
2022/05/24 12:45:33;;;;;;;1.70;0.40;;;19.40;8.50;;;;;;4967453;28;34072;-76
2022/05/24 12:47:59;;;;;;;1.52;0.50;;;19.50;5.60;;;;;;5004064;28;34246;-76
2022/05/24 12:50:32;;;;;;;0.63;0.28;;;19.60;7.90;;;;;;4999307;28;34391;-77
2022/05/24 12:53:01;;;;;;;0.35;0.35;;;19.70;7.90;;;;;;4997063;28;35619;-77
2022/05/24 12:58:14;;;;;;;0.52;0.52;;;19.90;7.00;;;;;;4987049;28;34588;-77
2022/05/24 13:00:41;;;;;;;1.05;0.32;;;20.00;6.60;;;;;;5004905;28;34245;-75
2022/05/24 13:03:08;;;;;;;1.27;0.50;;;20.00;7.50;;;;;;4994354;28;34343;-76
2022/05/24 13:05:38;;;;;;;0.30;0.30;;;20.10;7.80;;;;;;4984733;28;34288;-76
2022/05/24 13:08:05;;;;;;;1.02;0.30;;;20.10;6.90;;;;;;5001642;28;34240;-77
2022/05/24 13:10:36;;;;;;;3.25;0.77;;;20.20;7.80;;;;;;4991183;28;34391;-76
2022/05/24 13:13:06;;;;;;;0.45;0.45;;;20.60;6.70;;;;;;4971593;28;35740;-74
2022/05/24 13:15:40;;;;;;;0.35;0.35;;;20.90;7.10;;;;;;4988251;28;34057;-76
2022/05/24 13:18:12;;;;;;;0.63;0.45;;;21.10;6.90;;;;;;4997208;28;34165;-74
2022/05/24 13:20:42;;;;;;;0.88;0.40;;;21.00;6.30;;;;;;5009079;28;34217;-76
2022/05/24 13:23:21;;;;;;;0.45;0.45;;;21.20;7.10;;;;;;5006681;28;34989;-75
2022/05/24 13:25:55;;;;;;;1.30;0.60;;;21.40;4.00;;;;;;4991274;28;34461;-77
2022/05/24 13:28:52;;;;;;;1.33;0.40;;;21.60;4.80;;;;;;4991501;28;34171;-76
2022/05/24 13:34:23;;;;;;;1.17;0.50;;;22.00;5.40;;;;;;4987297;28;34096;-78
2022/05/24 13:37:07;;;;;;;1.25;0.50;;;22.30;4.10;;;;;;4992698;28;34176;-78
2022/05/24 13:39:53;;;;;;;0.55;0.43;;;22.30;3.00;;;;;;4987608;28;34025;-77
2022/05/24 13:42:25;;;;;;;0.50;0.40;;;22.20;1.00;;;;;;4976650;28;33944;-78
2022/05/24 13:45:15;;;;;;;0.40;0.40;;;22.10;4.50;;;;;;5007229;28;36480;-78
2022/05/24 13:47:45;;;;;;;2.83;0.50;;;21.90;1.70;;;;;;5006342;28;34366;-78
2022/05/24 13:50:32;;;;;;;1.55;0.60;;;21.70;5.00;;;;;;5003658;28;34292;-76
2022/05/24 13:53:07;;;;;;;0.47;0.40;;;21.60;2.30;;;;;;4996053;28;34731;-77
2022/05/24 13:55:40;;;;;;;0.40;0.35;;;21.50;4.30;;;;;;4986769;28;36519;-76